Time;durP1;ratioP1;P1;durP2;ratioP2;P2;SDS_P1;SDS_P2;PMS_P1;PMS_P2;Temp;Humidity;BMP_temperature;BMP_pressure;BME280_temperature;BME280_humidity;BME280_pressure;Samples;Min_cycle;Max_cycle;Signal;HPM_P1;HPM_P2
2022/10/22 00:01:50;;;;;;;11.10;7.70;;;12.60;99.90;;;;;;5054430;28;20563;-78
2022/10/22 00:04:15;;;;;;;11.07;7.40;;;12.60;99.90;;;;;;5054560;28;20041;-78
2022/10/22 00:06:43;;;;;;;11.20;7.30;;;12.60;99.90;;;;;;5054993;28;20083;-78
2022/10/22 00:09:10;;;;;;;13.30;7.45;;;12.60;99.90;;;;;;5054729;28;20045;-78
2022/10/22 00:11:36;;;;;;;11.30;8.77;;;12.60;99.90;;;;;;5054544;28;20549;-78
2022/10/22 00:14:01;;;;;;;11.95;8.27;;;12.60;99.90;;;;;;5054497;28;20045;-78
2022/10/22 00:16:27;;;;;;;12.98;9.07;;;12.50;99.90;;;;;;5054829;28;20116;-79
2022/10/22 00:18:53;;;;;;;13.40;8.52;;;12.50;99.90;;;;;;5054916;28;20495;-79
2022/10/22 00:21:18;;;;;;;16.10;9.52;;;12.50;99.90;;;;;;5054703;28;20157;-79
2022/10/22 00:23:44;;;;;;;11.25;7.72;;;12.50;99.90;;;;;;5038148;28;20035;-79
2022/10/22 00:26:10;;;;;;;11.82;7.55;;;12.50;99.90;;;;;;5054857;28;20037;-79
2022/10/22 00:28:36;;;;;;;11.18;7.80;;;12.50;99.90;;;;;;5055187;28;20478;-79
2022/10/22 00:31:02;;;;;;;12.35;7.97;;;12.50;99.90;;;;;;5054828;28;20033;-79
2022/10/22 00:33:29;;;;;;;9.77;6.93;;;12.40;99.90;;;;;;5054843;28;20045;-78
2022/10/22 00:35:55;;;;;;;10.60;7.10;;;12.40;99.90;;;;;;5054648;28;20067;-79
2022/10/22 00:38:20;;;;;;;11.38;7.18;;;12.40;99.90;;;;;;5054520;28;20059;-79
2022/10/22 00:40:46;;;;;;;10.55;7.72;;;12.40;99.90;;;;;;5053242;28;20037;-79
2022/10/22 00:43:14;;;;;;;14.07;7.60;;;12.30;99.90;;;;;;5054786;28;20072;-79
2022/10/22 00:45:39;;;;;;;15.60;7.72;;;12.30;99.90;;;;;;5055073;28;20120;-79
2022/10/22 00:48:10;;;;;;;11.27;7.43;;;12.30;99.90;;;;;;5054388;28;20514;-79
2022/10/22 00:50:41;;;;;;;12.52;7.93;;;12.20;99.90;;;;;;5054072;28;20071;-78
2022/10/22 00:53:17;;;;;;;15.13;8.18;;;12.20;99.90;;;;;;5053477;28;20045;-79
2022/10/22 00:55:44;;;;;;;15.68;9.10;;;12.30;99.90;;;;;;5054136;28;20119;-78
2022/10/22 00:58:12;;;;;;;14.60;8.20;;;12.30;99.90;;;;;;5037633;28;20093;-79
2022/10/22 01:00:37;;;;;;;16.45;9.00;;;12.30;99.90;;;;;;5053778;28;20036;-78
2022/10/22 01:03:03;;;;;;;11.77;8.35;;;12.20;99.90;;;;;;5054251;28;20032;-79
2022/10/22 01:05:32;;;;;;;13.35;8.82;;;12.20;99.90;;;;;;5042641;28;20032;-78
2022/10/22 01:07:58;;;;;;;17.92;9.63;;;12.30;99.90;;;;;;5053603;28;20049;-78
2022/10/22 01:10:50;;;;;;;12.82;9.18;;;12.30;99.90;;;;;;5053163;28;20060;-78
2022/10/22 01:13:31;;;;;;;13.35;8.90;;;12.30;99.90;;;;;;5052967;28;20564;-78
2022/10/22 01:16:00;;;;;;;15.75;9.15;;;12.30;99.90;;;;;;5036795;28;20582;-79
2022/10/22 01:18:28;;;;;;;12.98;9.15;;;12.30;99.90;;;;;;5053354;28;20514;-78
2022/10/22 01:21:14;;;;;;;20.52;9.77;;;12.30;99.90;;;;;;5053328;28;20033;-79
2022/10/22 01:24:17;;;;;;;12.07;8.68;;;12.30;99.90;;;;;;5053366;28;20074;-78
2022/10/22 01:27:19;;;;;;;14.52;8.90;;;12.30;99.90;;;;;;5043357;28;20049;-79
2022/10/22 01:30:00;;;;;;;19.00;8.70;;;12.30;99.90;;;;;;5045009;28;20418;-79
2022/10/22 01:32:28;;;;;;;12.68;8.50;;;12.30;99.90;;;;;;5053103;28;20045;-78
2022/10/22 01:34:59;;;;;;;11.88;7.85;;;12.30;99.90;;;;;;5035851;28;20029;-78
2022/10/22 01:37:28;;;;;;;12.80;8.43;;;12.30;99.90;;;;;;5038728;28;20391;-78
2022/10/22 01:39:56;;;;;;;17.30;8.50;;;12.30;99.90;;;;;;5052828;28;20098;-78
2022/10/22 01:42:23;;;;;;;15.27;8.65;;;12.30;99.90;;;;;;5052632;28;20182;-78
2022/10/22 01:44:49;;;;;;;14.43;7.90;;;12.40;99.90;;;;;;5052733;28;20028;-79
2022/10/22 01:47:41;;;;;;;10.55;7.88;;;12.40;99.90;;;;;;5052553;28;20529;-79
2022/10/22 01:50:26;;;;;;;13.35;8.88;;;12.30;99.90;;;;;;5052745;28;20044;-79
2022/10/22 01:53:02;;;;;;;15.38;8.20;;;12.30;99.90;;;;;;5052181;28;20040;-79
2022/10/22 01:55:49;;;;;;;16.85;8.30;;;12.30;99.90;;;;;;5035896;28;20041;-79
2022/10/22 01:58:33;;;;;;;13.05;7.50;;;12.40;99.90;;;;;;5052511;28;20033;-78
2022/10/22 02:01:12;;;;;;;13.95;8.20;;;12.40;99.90;;;;;;5053070;28;20052;-79
2022/10/22 02:03:45;;;;;;;12.55;8.02;;;12.30;99.90;;;;;;5053144;28;20048;-79
2022/10/22 02:06:17;;;;;;;16.35;7.85;;;12.40;99.90;;;;;;5052423;28;20058;-78
2022/10/22 02:08:44;;;;;;;11.02;7.32;;;12.40;99.90;;;;;;5053038;28;20044;-79
2022/10/22 02:11:12;;;;;;;13.98;7.72;;;12.40;99.90;;;;;;5052128;28;20052;-79
2022/10/22 02:13:48;;;;;;;13.65;7.45;;;12.40;99.90;;;;;;5052073;28;20049;-79
2022/10/22 02:16:30;;;;;;;13.55;7.70;;;12.40;99.90;;;;;;5035172;28;20047;-79
2022/10/22 02:18:59;;;;;;;14.32;7.75;;;12.40;99.90;;;;;;5052035;28;20045;-79
2022/10/22 02:21:26;;;;;;;11.30;7.25;;;12.40;99.90;;;;;;5035279;28;20125;-79
2022/10/22 02:23:52;;;;;;;10.60;7.00;;;12.40;99.90;;;;;;5035210;28;20037;-79
2022/10/22 02:26:24;;;;;;;12.70;7.93;;;12.40;99.90;;;;;;5052065;28;20095;-79
2022/10/22 02:29:12;;;;;;;13.27;7.57;;;12.40;99.90;;;;;;5052851;28;20098;-79
2022/10/22 02:31:40;;;;;;;13.70;8.10;;;12.40;99.90;;;;;;5051890;28;20041;-79
2022/10/22 02:34:10;;;;;;;12.15;8.20;;;12.40;99.90;;;;;;5035493;28;20087;-79
2022/10/22 02:36:37;;;;;;;13.68;8.07;;;12.40;99.90;;;;;;5035167;28;20127;-80
2022/10/22 02:39:05;;;;;;;11.85;8.10;;;12.40;99.90;;;;;;5035316;28;20033;-79
2022/10/22 02:41:31;;;;;;;11.98;7.72;;;12.40;99.90;;;;;;5051522;28;20033;-79
2022/10/22 02:43:56;;;;;;;13.10;8.45;;;12.50;99.90;;;;;;5052069;28;20473;-80
2022/10/22 02:46:23;;;;;;;13.98;8.27;;;12.50;99.90;;;;;;5052309;28;20025;-79
2022/10/22 02:48:48;;;;;;;12.13;8.30;;;12.50;99.90;;;;;;5052041;28;20052;-79
2022/10/22 02:51:14;;;;;;;12.98;8.30;;;12.50;99.90;;;;;;5051267;28;20395;-79
2022/10/22 02:53:39;;;;;;;16.15;9.13;;;12.50;99.90;;;;;;5035384;28;20085;-78
2022/10/22 02:56:05;;;;;;;12.15;8.02;;;12.50;99.90;;;;;;5035103;28;20056;-79
2022/10/22 02:58:31;;;;;;;12.45;7.90;;;12.50;99.90;;;;;;5052025;28;20090;-79
2022/10/22 03:00:56;;;;;;;11.15;8.00;;;12.50;99.90;;;;;;5051669;28;20041;-80
2022/10/22 03:03:22;;;;;;;13.15;8.85;;;12.50;99.90;;;;;;5050305;28;20040;-79
2022/10/22 03:05:49;;;;;;;14.25;8.20;;;12.50;99.90;;;;;;5046195;28;20064;-79
2022/10/22 03:08:15;;;;;;;12.15;7.90;;;12.50;99.90;;;;;;5051792;28;20434;-79
2022/10/22 03:10:40;;;;;;;15.35;7.65;;;12.50;99.90;;;;;;5051800;28;20040;-80
2022/10/22 03:13:06;;;;;;;13.10;7.78;;;12.50;99.90;;;;;;5051233;28;20048;-79
2022/10/22 03:15:31;;;;;;;13.85;8.52;;;12.50;99.90;;;;;;5051071;28;20043;-79
2022/10/22 03:17:57;;;;;;;13.85;8.40;;;12.50;99.90;;;;;;5051078;28;20045;-78
2022/10/22 03:20:22;;;;;;;13.93;7.88;;;12.50;99.90;;;;;;5034434;28;20040;-79
2022/10/22 03:22:48;;;;;;;12.20;7.75;;;12.50;99.90;;;;;;5051303;28;20645;-79
2022/10/22 03:25:18;;;;;;;11.27;7.65;;;12.50;99.90;;;;;;5050998;28;20068;-79
2022/10/22 03:27:44;;;;;;;12.73;7.90;;;12.40;99.90;;;;;;5051456;28;20029;-80
2022/10/22 03:30:11;;;;;;;12.05;8.25;;;12.40;99.90;;;;;;5051513;28;20395;-79
2022/10/22 03:32:37;;;;;;;12.15;7.95;;;12.40;99.90;;;;;;5050671;28;20071;-79
2022/10/22 03:35:04;;;;;;;14.48;7.68;;;12.30;99.90;;;;;;5051324;28;20076;-79
2022/10/22 03:37:31;;;;;;;12.18;7.90;;;12.30;99.90;;;;;;5051713;28;20398;-79
2022/10/22 03:39:57;;;;;;;13.63;8.00;;;12.30;99.90;;;;;;5050685;28;20045;-78
2022/10/22 03:42:23;;;;;;;13.88;8.10;;;12.20;99.90;;;;;;5050606;28;20063;-79
2022/10/22 03:44:49;;;;;;;14.75;7.93;;;12.30;99.90;;;;;;5050853;28;20494;-79
2022/10/22 03:47:14;;;;;;;12.82;8.10;;;12.20;99.90;;;;;;5050793;28;20033;-79
2022/10/22 03:49:40;;;;;;;14.15;8.50;;;12.20;99.90;;;;;;5051117;28;20033;-78
2022/10/22 03:52:11;;;;;;;14.63;7.70;;;12.20;99.90;;;;;;5051202;28;20120;-79
2022/10/22 03:54:37;;;;;;;13.60;7.80;;;12.20;99.90;;;;;;5050910;28;20040;-79
2022/10/22 03:57:04;;;;;;;15.88;8.68;;;12.20;99.90;;;;;;5034352;28;20049;-80
2022/10/22 03:59:38;;;;;;;14.38;8.30;;;12.20;99.90;;;;;;5034120;28;20060;-79
2022/10/22 04:02:04;;;;;;;17.23;8.70;;;12.10;99.90;;;;;;5050795;28;20042;-79
2022/10/22 04:04:29;;;;;;;11.20;8.10;;;12.10;99.90;;;;;;5050524;28;20106;-79
2022/10/22 04:06:55;;;;;;;17.10;8.85;;;12.10;99.90;;;;;;5034134;28;20441;-80
2022/10/22 04:09:20;;;;;;;11.77;8.23;;;12.10;99.90;;;;;;5034089;28;20033;-79
2022/10/22 04:11:46;;;;;;;15.13;8.50;;;12.10;99.90;;;;;;5050947;28;20098;-79
2022/10/22 04:14:12;;;;;;;15.73;8.85;;;12.10;99.90;;;;;;5051610;28;20124;-79
2022/10/22 04:16:39;;;;;;;12.93;8.23;;;12.10;99.90;;;;;;5054538;28;20045;-79
2022/10/22 04:19:04;;;;;;;16.25;9.23;;;12.10;99.90;;;;;;5054331;28;20033;-79
2022/10/22 04:21:30;;;;;;;17.83;9.07;;;12.00;99.90;;;;;;5053983;28;20037;-79
2022/10/22 04:23:56;;;;;;;16.85;8.95;;;12.00;99.90;;;;;;5054001;28;20074;-79
2022/10/22 04:26:22;;;;;;;15.55;8.80;;;12.00;99.90;;;;;;5053901;28;20048;-79
2022/10/22 04:28:49;;;;;;;14.68;9.20;;;12.10;99.90;;;;;;5053864;28;20041;-79
2022/10/22 04:31:18;;;;;;;15.25;8.90;;;12.10;99.90;;;;;;5053807;28;20052;-79
2022/10/22 04:33:44;;;;;;;13.38;8.70;;;12.10;99.90;;;;;;5053649;28;20091;-79
2022/10/22 04:36:15;;;;;;;13.63;8.43;;;12.10;99.90;;;;;;5037315;28;20033;-80
2022/10/22 04:38:42;;;;;;;13.43;8.43;;;12.00;99.90;;;;;;5053769;28;20045;-79
2022/10/22 04:41:10;;;;;;;16.95;9.38;;;12.10;99.90;;;;;;5053360;28;20086;-79
2022/10/22 04:43:36;;;;;;;13.85;8.50;;;12.00;99.90;;;;;;5037445;28;20402;-79
2022/10/22 04:46:01;;;;;;;13.07;9.23;;;12.10;99.90;;;;;;5053589;28;20044;-79
2022/10/22 04:48:27;;;;;;;18.10;9.63;;;12.10;99.90;;;;;;5053520;28;20072;-79
2022/10/22 04:50:52;;;;;;;20.63;9.50;;;12.10;99.90;;;;;;5053252;28;20065;-80
2022/10/22 04:53:18;;;;;;;15.48;9.25;;;12.10;99.90;;;;;;5053408;28;20403;-79
2022/10/22 04:55:43;;;;;;;17.77;9.65;;;12.10;99.90;;;;;;5053413;28;20044;-79
2022/10/22 04:58:09;;;;;;;13.93;9.48;;;12.10;99.90;;;;;;5053020;28;20129;-79
2022/10/22 05:00:34;;;;;;;15.50;9.20;;;12.10;99.90;;;;;;5053792;28;20037;-79
2022/10/22 05:03:00;;;;;;;16.13;8.95;;;12.10;99.90;;;;;;5053049;28;20037;-79
2022/10/22 05:05:25;;;;;;;14.93;9.68;;;12.10;99.90;;;;;;5052333;28;20040;-79
2022/10/22 05:07:51;;;;;;;13.75;9.40;;;12.10;99.90;;;;;;5042483;28;20033;-78
2022/10/22 05:10:16;;;;;;;16.08;9.43;;;12.10;99.90;;;;;;5052913;28;20390;-79
2022/10/22 05:12:42;;;;;;;15.23;9.10;;;12.00;99.90;;;;;;5052650;28;20170;-79
2022/10/22 05:15:08;;;;;;;18.98;9.05;;;12.10;99.90;;;;;;5053003;28;20387;-79
2022/10/22 05:17:36;;;;;;;18.23;9.65;;;12.00;99.90;;;;;;5052840;28;20119;-79
2022/10/22 05:20:04;;;;;;;19.17;9.80;;;12.00;99.90;;;;;;5053176;28;20065;-79
2022/10/22 05:22:29;;;;;;;18.50;9.63;;;12.00;99.90;;;;;;5052992;28;20036;-79
2022/10/22 05:24:55;;;;;;;13.75;8.90;;;12.00;99.90;;;;;;5036218;28;20043;-79
2022/10/22 05:27:20;;;;;;;16.30;9.30;;;12.00;99.90;;;;;;5035603;28;20064;-79
2022/10/22 05:29:46;;;;;;;14.48;9.40;;;12.00;99.90;;;;;;5053174;28;20096;-79
2022/10/22 05:32:11;;;;;;;15.65;9.70;;;12.00;99.90;;;;;;5053135;28;20124;-79
2022/10/22 05:34:37;;;;;;;18.25;9.85;;;12.00;99.90;;;;;;5052538;28;20040;-79
2022/10/22 05:37:03;;;;;;;18.83;10.45;;;12.00;99.90;;;;;;5052930;28;20049;-79
2022/10/22 05:39:28;;;;;;;18.10;9.30;;;12.00;99.90;;;;;;5037739;28;20036;-79
2022/10/22 05:41:54;;;;;;;21.05;11.00;;;12.00;99.90;;;;;;5035790;28;20037;-79
2022/10/22 05:44:19;;;;;;;15.65;10.52;;;12.00;99.90;;;;;;5051991;28;20044;-79
2022/10/22 05:46:45;;;;;;;16.98;10.57;;;12.10;99.90;;;;;;5052239;28;20037;-79
2022/10/22 05:49:13;;;;;;;17.08;10.15;;;12.10;99.90;;;;;;5052354;28;20558;-79
2022/10/22 05:51:39;;;;;;;16.70;10.00;;;12.10;99.90;;;;;;5051721;28;20117;-79
2022/10/22 05:54:06;;;;;;;15.10;10.50;;;12.10;99.90;;;;;;5052460;28;20541;-78
2022/10/22 05:56:33;;;;;;;16.05;10.35;;;12.10;99.90;;;;;;5035127;28;20041;-79
2022/10/22 05:58:59;;;;;;;14.05;10.15;;;12.10;99.90;;;;;;5052199;28;20052;-79
2022/10/22 06:01:31;;;;;;;17.92;9.85;;;12.10;99.90;;;;;;5052058;28;20064;-78
2022/10/22 06:03:59;;;;;;;15.95;10.48;;;12.10;99.90;;;;;;5035401;28;20041;-79
2022/10/22 06:06:30;;;;;;;16.42;9.90;;;12.10;99.90;;;;;;5052671;28;20060;-79
2022/10/22 06:09:00;;;;;;;15.30;10.00;;;12.20;99.90;;;;;;5051972;28;20049;-78
2022/10/22 06:11:26;;;;;;;15.65;9.80;;;12.10;99.90;;;;;;5035672;28;20510;-79
2022/10/22 06:13:52;;;;;;;21.95;10.45;;;12.10;99.90;;;;;;5051827;28;20116;-79
2022/10/22 06:16:17;;;;;;;15.80;10.27;;;12.10;99.90;;;;;;5034967;28;20435;-79
2022/10/22 06:18:43;;;;;;;16.83;9.18;;;12.10;99.90;;;;;;5051462;28;20048;-79
2022/10/22 06:21:11;;;;;;;13.35;9.77;;;12.10;99.90;;;;;;5052051;28;20043;-78
2022/10/22 06:23:38;;;;;;;15.00;9.38;;;12.10;99.90;;;;;;5035461;28;20041;-79
2022/10/22 06:26:05;;;;;;;14.15;9.80;;;12.10;99.90;;;;;;5051900;28;20116;-79
2022/10/22 06:28:31;;;;;;;15.13;9.38;;;12.10;99.90;;;;;;5051718;28;20140;-79
2022/10/22 06:30:58;;;;;;;13.52;9.90;;;12.10;99.90;;;;;;5051428;28;20071;-79
2022/10/22 06:33:24;;;;;;;17.65;9.65;;;12.10;99.90;;;;;;5051883;28;20041;-79
2022/10/22 06:35:50;;;;;;;17.38;9.35;;;12.10;99.90;;;;;;5052765;28;20048;-79
2022/10/22 06:38:16;;;;;;;18.20;10.48;;;12.10;99.90;;;;;;5051601;28;20235;-79
2022/10/22 06:40:43;;;;;;;16.67;9.95;;;12.10;99.90;;;;;;5051368;28;20087;-79
2022/10/22 06:43:10;;;;;;;17.17;10.25;;;12.20;99.90;;;;;;5051219;28;20037;-79
2022/10/22 06:45:36;;;;;;;15.40;10.15;;;12.20;99.90;;;;;;5051335;28;20507;-79
2022/10/22 06:48:01;;;;;;;18.35;10.50;;;12.30;99.90;;;;;;5034954;28;20136;-79
2022/10/22 06:50:27;;;;;;;15.25;9.93;;;12.30;99.90;;;;;;5035079;28;20043;-79
2022/10/22 06:52:52;;;;;;;13.30;9.70;;;12.30;99.90;;;;;;5051342;28;20078;-79
2022/10/22 06:55:18;;;;;;;15.60;9.70;;;12.40;99.90;;;;;;5051960;28;20094;-79
2022/10/22 06:57:43;;;;;;;14.05;10.02;;;12.40;99.90;;;;;;5051231;28;20162;-79
2022/10/22 07:00:10;;;;;;;17.27;9.80;;;12.40;99.90;;;;;;5034763;28;20033;-78
2022/10/22 07:02:35;;;;;;;17.92;9.63;;;12.50;99.90;;;;;;5051080;28;20043;-79
2022/10/22 07:05:01;;;;;;;17.90;8.93;;;12.50;99.90;;;;;;5051379;28;20576;-79
2022/10/22 07:07:26;;;;;;;16.25;10.00;;;12.50;99.90;;;;;;5046953;28;20656;-79
2022/10/22 07:09:52;;;;;;;16.25;8.77;;;12.60;99.90;;;;;;5051392;28;20048;-79
2022/10/22 07:12:17;;;;;;;13.93;9.30;;;12.60;99.90;;;;;;5051342;28;20044;-79
2022/10/22 07:14:43;;;;;;;16.17;8.88;;;12.70;99.90;;;;;;5051728;28;20041;-79
2022/10/22 07:17:08;;;;;;;15.27;8.82;;;12.70;99.90;;;;;;5051323;28;20183;-79
2022/10/22 07:19:34;;;;;;;17.67;8.40;;;12.70;99.90;;;;;;5051267;28;20033;-79
2022/10/22 07:22:00;;;;;;;13.70;8.75;;;12.70;99.90;;;;;;5034350;28;20150;-80
2022/10/22 07:24:26;;;;;;;13.85;8.43;;;12.80;99.90;;;;;;5051662;28;20164;-80
2022/10/22 07:26:52;;;;;;;14.88;9.00;;;12.80;99.90;;;;;;5050831;28;20075;-79
2022/10/22 07:29:17;;;;;;;16.00;8.45;;;12.80;99.90;;;;;;5051228;28;20041;-79
2022/10/22 07:31:43;;;;;;;15.32;8.73;;;12.80;99.90;;;;;;5050814;28;20060;-79
2022/10/22 07:34:09;;;;;;;16.05;8.73;;;12.90;99.90;;;;;;5034683;28;20537;-80
2022/10/22 07:36:35;;;;;;;14.30;8.40;;;12.90;99.90;;;;;;5051356;28;20116;-79
2022/10/22 07:39:02;;;;;;;18.17;8.25;;;13.00;99.90;;;;;;5050879;28;20499;-79
2022/10/22 07:41:28;;;;;;;18.58;8.25;;;13.00;99.90;;;;;;5051092;28;20052;-79
2022/10/22 07:43:55;;;;;;;14.75;7.85;;;13.00;99.90;;;;;;5051434;28;20051;-79
2022/10/22 07:46:21;;;;;;;13.18;7.82;;;13.00;99.90;;;;;;5051298;28;20116;-80
2022/10/22 07:48:47;;;;;;;11.85;7.57;;;13.10;99.90;;;;;;5051106;28;20087;-79
2022/10/22 07:51:13;;;;;;;13.23;7.80;;;13.10;99.90;;;;;;5051638;28;20049;-80
2022/10/22 07:53:38;;;;;;;13.32;7.20;;;13.10;99.90;;;;;;5044215;28;20045;-80
2022/10/22 07:56:04;;;;;;;13.10;8.13;;;13.10;99.90;;;;;;5055281;28;20411;-79
2022/10/22 07:58:30;;;;;;;14.25;7.43;;;13.10;99.90;;;;;;5054968;28;20041;-79
2022/10/22 08:00:57;;;;;;;9.65;6.90;;;13.10;99.90;;;;;;5054461;28;20040;-79
2022/10/22 08:03:23;;;;;;;14.13;7.13;;;13.20;99.90;;;;;;5054535;28;20060;-79
2022/10/22 08:05:50;;;;;;;14.30;7.43;;;13.10;99.90;;;;;;5037911;28;20146;-79
2022/10/22 08:08:15;;;;;;;14.93;7.20;;;13.20;99.90;;;;;;5055362;28;20386;-79
2022/10/22 08:10:42;;;;;;;12.13;6.95;;;13.20;99.90;;;;;;5054248;28;20036;-79
2022/10/22 08:13:07;;;;;;;14.98;6.68;;;13.20;99.90;;;;;;5038263;28;20040;-79
2022/10/22 08:15:33;;;;;;;15.10;6.95;;;13.20;99.90;;;;;;5054784;28;20120;-79
2022/10/22 08:17:59;;;;;;;13.68;7.22;;;13.20;99.90;;;;;;5055133;28;20483;-79
2022/10/22 08:20:24;;;;;;;11.27;6.82;;;13.20;99.90;;;;;;5055085;28;20043;-80
2022/10/22 08:22:50;;;;;;;11.10;6.07;;;13.30;99.90;;;;;;5054878;28;20124;-79
2022/10/22 08:25:17;;;;;;;13.63;6.35;;;13.30;99.90;;;;;;5055009;28;20121;-79
2022/10/22 08:27:43;;;;;;;14.98;6.38;;;13.40;99.90;;;;;;5038514;28;20048;-79
2022/10/22 08:30:09;;;;;;;14.77;6.03;;;13.50;99.90;;;;;;5056384;28;20434;-79
2022/10/22 08:32:35;;;;;;;12.18;5.60;;;13.70;99.90;;;;;;5054713;28;20483;-79
2022/10/22 08:35:00;;;;;;;15.93;6.05;;;13.70;99.90;;;;;;5054579;28;20070;-79
2022/10/22 08:37:26;;;;;;;17.00;5.97;;;13.80;99.90;;;;;;5054799;28;20171;-80
2022/10/22 08:39:51;;;;;;;12.88;6.20;;;14.00;99.90;;;;;;5055075;28;20124;-79
2022/10/22 08:42:35;;;;;;;15.30;5.85;;;14.00;99.90;;;;;;5054881;28;20149;-79
2022/10/22 08:45:21;;;;;;;12.13;6.15;;;14.10;99.90;;;;;;5038020;28;20041;-79
2022/10/22 08:48:24;;;;;;;12.57;5.65;;;14.30;99.90;;;;;;5054596;28;20060;-79
2022/10/22 08:50:55;;;;;;;13.77;5.20;;;14.40;99.90;;;;;;5055146;28;20040;-79
2022/10/22 08:53:28;;;;;;;13.13;5.50;;;14.50;99.90;;;;;;5055107;28;20033;-79
2022/10/22 08:55:55;;;;;;;11.85;5.13;;;14.60;99.90;;;;;;5054853;28;20037;-80
2022/10/22 08:58:33;;;;;;;14.05;5.32;;;14.70;99.90;;;;;;5054942;28;20041;-80
2022/10/22 09:01:11;;;;;;;12.30;4.95;;;14.70;99.90;;;;;;5036517;28;20148;-80
2022/10/22 09:03:57;;;;;;;13.60;4.85;;;14.80;99.90;;;;;;5055392;28;20051;-80
2022/10/22 09:06:28;;;;;;;11.68;5.15;;;14.80;99.90;;;;;;5054509;28;20055;-80
2022/10/22 09:08:56;;;;;;;14.10;4.78;;;14.90;99.90;;;;;;5043663;28;20421;-80
2022/10/22 09:11:33;;;;;;;10.90;4.65;;;15.00;99.90;;;;;;5054057;28;20068;-79
2022/10/22 09:14:00;;;;;;;13.77;4.32;;;15.00;99.90;;;;;;5054152;28;20048;-80
2022/10/22 09:16:49;;;;;;;9.73;3.90;;;15.00;99.90;;;;;;5054286;28;20037;-80
2022/10/22 09:19:27;;;;;;;10.75;4.78;;;15.00;99.90;;;;;;5037209;28;20040;-80
2022/10/22 09:22:26;;;;;;;10.07;4.45;;;15.10;99.90;;;;;;5053838;28;20502;-79
2022/10/22 09:25:15;;;;;;;11.38;4.10;;;15.20;99.90;;;;;;5054268;28;20040;-79
2022/10/22 09:27:41;;;;;;;13.35;6.55;;;15.30;99.90;;;;;;5054451;28;20037;-80
2022/10/22 09:30:15;;;;;;;14.50;4.57;;;15.40;99.90;;;;;;5053527;28;20069;-81
2022/10/22 09:32:40;;;;;;;10.55;4.32;;;15.40;99.90;;;;;;5053499;28;20045;-80
2022/10/22 09:35:10;;;;;;;10.13;3.95;;;15.50;99.90;;;;;;5036775;28;20045;-80
2022/10/22 09:37:49;;;;;;;11.60;4.03;;;15.60;99.90;;;;;;5054516;28;20044;-81
2022/10/22 09:40:16;;;;;;;9.75;4.40;;;15.70;99.90;;;;;;5053389;28;20045;-81
2022/10/22 09:42:43;;;;;;;10.57;4.32;;;15.70;99.90;;;;;;5052396;28;20052;-81
2022/10/22 09:45:23;;;;;;;8.93;4.22;;;15.70;99.90;;;;;;5052889;28;20037;-81
2022/10/22 09:47:49;;;;;;;12.95;4.47;;;15.70;99.90;;;;;;5052804;28;20487;-82
2022/10/22 09:50:18;;;;;;;9.18;4.07;;;15.70;99.90;;;;;;5053342;28;20044;-81
2022/10/22 09:52:44;;;;;;;11.80;4.13;;;15.70;99.90;;;;;;5053270;28;20502;-80
2022/10/22 09:55:17;;;;;;;11.50;4.82;;;15.70;99.90;;;;;;5053149;28;20102;-81
2022/10/22 09:57:43;;;;;;;10.30;3.85;;;15.70;99.90;;;;;;5052947;28;20041;-81
2022/10/22 10:00:11;;;;;;;11.25;4.25;;;15.70;99.90;;;;;;5052651;28;20055;-80
2022/10/22 10:02:40;;;;;;;11.30;4.40;;;15.70;99.90;;;;;;5036101;28;20411;-81
2022/10/22 10:05:07;;;;;;;12.90;4.70;;;15.70;99.90;;;;;;5053155;28;20040;-82
2022/10/22 10:07:34;;;;;;;10.32;4.80;;;15.70;99.90;;;;;;5052468;28;20064;-81
2022/10/22 10:10:00;;;;;;;16.27;4.60;;;15.70;99.90;;;;;;5052680;28;20531;-81
2022/10/22 10:12:55;;;;;;;14.48;5.07;;;15.70;99.90;;;;;;5052304;28;20033;-81
2022/10/22 10:15:28;;;;;;;14.45;4.65;;;15.70;99.90;;;;;;5052475;28;20057;-81
2022/10/22 10:18:13;;;;;;;13.15;5.53;;;15.70;99.90;;;;;;5052989;28;20120;-81
2022/10/22 10:20:48;;;;;;;13.93;5.05;;;15.70;99.90;;;;;;5036036;28;20376;-81
2022/10/22 10:23:39;;;;;;;10.43;4.82;;;15.70;99.90;;;;;;5053065;28;20047;-80
2022/10/22 10:26:46;;;;;;;9.00;5.28;;;15.70;99.90;;;;;;5053317;28;20072;-81
2022/10/22 10:29:11;;;;;;;14.40;5.45;;;15.60;99.90;;;;;;5052683;28;20517;-81
2022/10/22 10:32:16;;;;;;;9.30;5.22;;;15.60;99.90;;;;;;5054222;28;20055;-81
2022/10/22 10:34:57;;;;;;;9.52;5.15;;;15.60;99.90;;;;;;5052012;28;20045;-82
2022/10/22 10:37:32;;;;;;;14.43;5.45;;;15.70;99.90;;;;;;5036178;28;20052;-81
2022/10/22 10:40:20;;;;;;;11.38;5.90;;;15.70;99.90;;;;;;5051616;28;20061;-81
2022/10/22 10:43:01;;;;;;;15.82;5.15;;;15.80;99.90;;;;;;5050972;28;20123;-81
2022/10/22 10:45:56;;;;;;;11.98;5.45;;;15.80;99.90;;;;;;5051843;28;20040;-81
2022/10/22 10:48:44;;;;;;;13.13;5.30;;;15.80;99.90;;;;;;5053827;28;20044;-82
2022/10/22 10:51:24;;;;;;;16.25;5.63;;;15.90;99.90;;;;;;5051092;28;20486;-81
2022/10/22 10:54:14;;;;;;;9.02;4.95;;;15.80;99.90;;;;;;5051661;28;20040;-81
2022/10/22 10:57:01;;;;;;;13.13;5.45;;;15.90;99.90;;;;;;5035543;28;20111;-81
2022/10/22 10:59:56;;;;;;;10.82;5.10;;;15.80;99.90;;;;;;5051589;28;20044;-81
2022/10/22 11:02:59;;;;;;;13.20;5.50;;;15.80;99.90;;;;;;5051395;28;20036;-81
2022/10/22 11:05:48;;;;;;;11.93;5.07;;;15.70;99.90;;;;;;5051541;28;20482;-81
2022/10/22 11:08:24;;;;;;;16.77;6.07;;;15.60;99.90;;;;;;5047993;28;20491;-81
2022/10/22 11:10:53;;;;;;;11.65;5.57;;;15.50;99.90;;;;;;5038860;28;20047;-81
2022/10/22 11:13:29;;;;;;;10.60;5.45;;;15.40;99.90;;;;;;5052932;28;20040;-80
2022/10/22 11:16:25;;;;;;;15.95;6.00;;;15.40;99.90;;;;;;5052125;28;20048;-81
2022/10/22 11:19:20;;;;;;;9.45;5.75;;;15.30;99.90;;;;;;5034838;28;20037;-80
2022/10/22 11:21:55;;;;;;;11.80;6.40;;;15.20;99.90;;;;;;5052231;28;20032;-80
2022/10/22 11:24:38;;;;;;;15.18;6.53;;;15.30;99.90;;;;;;5054084;28;20040;-80
2022/10/22 11:27:12;;;;;;;17.63;6.68;;;15.30;99.90;;;;;;5051310;28;20041;-81
2022/10/22 11:29:40;;;;;;;;;;;15.40;99.90;;;;;;5051799;28;20504;-80
2022/10/22 11:32:13;;;;;;;14.95;6.95;;;15.50;99.90;;;;;;5051239;28;20354;-80
2022/10/22 11:34:50;;;;;;;11.10;6.68;;;15.70;99.90;;;;;;5051245;28;20162;-80
2022/10/22 11:37:16;;;;;;;15.52;7.10;;;15.80;99.90;;;;;;5051770;28;20056;-80
2022/10/22 11:40:01;;;;;;;16.80;7.53;;;15.90;99.90;;;;;;5051375;28;20041;-81
2022/10/22 11:42:36;;;;;;;12.80;7.30;;;16.00;99.90;;;;;;5050973;28;20050;-80
2022/10/22 11:45:12;;;;;;;13.23;6.85;;;16.00;99.90;;;;;;5051018;28;20048;-80
2022/10/22 11:48:06;;;;;;;11.65;6.63;;;16.00;99.90;;;;;;5051047;28;20514;-79
2022/10/22 11:50:45;;;;;;;11.50;6.95;;;16.00;99.90;;;;;;5034149;28;20071;-79
2022/10/22 11:53:13;;;;;;;14.23;6.65;;;15.90;99.90;;;;;;5050064;28;20083;-80
2022/10/22 11:55:44;;;;;;;14.02;7.13;;;15.90;99.90;;;;;;5034319;28;20045;-80
2022/10/22 11:58:31;;;;;;;14.50;6.72;;;15.80;99.90;;;;;;5051156;28;20052;-80
2022/10/22 12:01:06;;;;;;;10.75;6.93;;;15.80;99.90;;;;;;5050773;28;20045;-80
2022/10/22 12:03:31;;;;;;;12.27;7.38;;;15.70;99.90;;;;;;5034195;28;20041;-80
2022/10/22 12:06:13;;;;;;;12.50;7.47;;;15.70;99.90;;;;;;5051172;28;20139;-80
2022/10/22 12:08:43;;;;;;;13.75;7.07;;;15.70;99.90;;;;;;5051424;28;20119;-80
2022/10/22 12:11:08;;;;;;;13.43;7.10;;;15.80;99.90;;;;;;5050945;28;20079;-80
2022/10/22 12:14:12;;;;;;;12.77;6.45;;;15.80;99.90;;;;;;5034340;28;20041;-79
2022/10/22 12:16:41;;;;;;;12.48;6.68;;;15.80;99.90;;;;;;5050892;28;20159;-79
2022/10/22 12:19:15;;;;;;;15.57;7.20;;;15.90;99.90;;;;;;5033856;28;20040;-81
2022/10/22 12:21:44;;;;;;;9.48;6.70;;;16.10;99.90;;;;;;5050802;28;20123;-80
2022/10/22 12:24:14;;;;;;;12.65;6.50;;;16.20;99.90;;;;;;5050584;28;20033;-81
2022/10/22 12:26:39;;;;;;;12.05;6.70;;;16.30;99.90;;;;;;5050711;28;20069;-79
2022/10/22 12:29:10;;;;;;;12.85;6.35;;;16.40;99.90;;;;;;5050846;28;20052;-80
2022/10/22 12:31:38;;;;;;;11.05;6.28;;;16.50;99.90;;;;;;5050377;28;20068;-80
2022/10/22 12:34:04;;;;;;;10.75;5.50;;;16.50;99.90;;;;;;5034626;28;20048;-80
2022/10/22 12:36:32;;;;;;;13.48;6.05;;;16.40;99.90;;;;;;5036729;28;20037;-81
2022/10/22 12:39:03;;;;;;;9.02;5.15;;;16.30;99.90;;;;;;5054173;28;20091;-80
2022/10/22 12:41:34;;;;;;;11.88;5.30;;;16.20;99.90;;;;;;5054628;28;20067;-78
2022/10/22 12:44:02;;;;;;;11.88;5.82;;;16.20;99.90;;;;;;5053957;28;20033;-80
2022/10/22 12:46:31;;;;;;;14.32;5.40;;;16.00;99.90;;;;;;5037560;28;20041;-81
2022/10/22 12:49:04;;;;;;;12.25;6.13;;;16.00;99.90;;;;;;5054982;28;20049;-80
2022/10/22 12:51:30;;;;;;;13.25;5.65;;;15.90;99.90;;;;;;5054915;28;20049;-80
2022/10/22 12:54:02;;;;;;;13.20;5.68;;;15.90;99.90;;;;;;5054291;28;20049;-80
2022/10/22 12:56:32;;;;;;;16.70;5.90;;;15.90;99.90;;;;;;5054031;28;20047;-80